Lawn, Texas
Current Conditions -  °F | °C
As of 5:52 AM on Monday 20 Oct 2014 (Local Time) from KABI Reporting Station
Clear Clear  
Wind Chill: 62°   Ceiling: Unl
Heat Index: 62°   Visibility: 10mi
Dew Point: 58°   Wind: 5mph
Humidity: 86%   Direction: 140°SE
Pressure: 30.06"   Gusts: NA
Location:  32.13°N, 99.75°W
Report Text: KABI 201052Z 14004KT 10SM CLR 17/14 A3006 RMK AO2 SLP160 T01670144
Loading
Personal Weather Stations






























Interactive Weather Map
Tropical Storm Tracking
New forecast layout! Learn more

10-Day Weather Forecast

Advertisements
Track Severe Weather on mobile